createdAt,value
2023-01-22T00:01:46.178Z,4.00
2023-01-22T00:04:13.127Z,4.00
2023-01-22T00:06:39.846Z,4.00
2023-01-22T00:09:06.678Z,4.00
2023-01-22T00:11:33.457Z,4.00
2023-01-22T00:14:00.196Z,4.00
2023-01-22T00:16:26.921Z,4.00
2023-01-22T00:18:53.724Z,4.00
2023-01-22T00:21:20.524Z,4.00
2023-01-22T00:23:47.305Z,4.10
2023-01-22T00:26:16.245Z,4.10
2023-01-22T00:28:45.413Z,4.10
2023-01-22T00:31:12.882Z,4.10
2023-01-22T00:33:40.149Z,4.10
2023-01-22T00:36:08.890Z,4.00
2023-01-22T00:38:36.223Z,4.00
2023-01-22T00:41:04.089Z,4.00
2023-01-22T00:43:31.275Z,4.00
2023-01-22T00:45:58.086Z,3.90
2023-01-22T00:48:24.933Z,3.90
2023-01-22T00:50:51.801Z,3.80
2023-01-22T00:53:18.641Z,3.90
2023-01-22T00:55:52.065Z,3.90
2023-01-22T00:58:19.308Z,3.90
2023-01-22T01:00:46.204Z,3.80
2023-01-22T01:03:28.245Z,3.70
2023-01-22T01:05:55.388Z,3.70
2023-01-22T01:08:22.674Z,3.70
2023-01-22T01:10:49.468Z,3.70
2023-01-22T01:13:16.208Z,3.70
2023-01-22T01:15:43.335Z,3.70
2023-01-22T01:18:13.089Z,3.80
2023-01-22T01:20:43.136Z,3.80
2023-01-22T01:23:09.842Z,3.80
2023-01-22T01:25:40.216Z,3.80
2023-01-22T01:28:06.997Z,3.70
2023-01-22T01:30:34.236Z,3.70
2023-01-22T01:33:01.208Z,3.70
2023-01-22T01:35:28.015Z,3.80
2023-01-22T01:37:54.844Z,3.80
2023-01-22T01:40:21.626Z,3.80
2023-01-22T01:42:48.366Z,3.80
2023-01-22T01:45:29.066Z,3.80
2023-01-22T01:48:11.706Z,3.80
2023-01-22T01:50:40.173Z,3.80
2023-01-22T01:53:06.922Z,3.90
2023-01-22T01:55:34.839Z,3.70
2023-01-22T01:58:08.381Z,3.70
2023-01-22T02:00:35.598Z,3.70
2023-01-22T02:03:02.565Z,3.70
2023-01-22T02:05:32.166Z,3.70
2023-01-22T02:07:59.318Z,3.80
2023-01-22T02:10:26.151Z,3.70
2023-01-22T02:12:54.230Z,3.70
2023-01-22T02:15:20.991Z,3.70
2023-01-22T02:17:48.329Z,3.70
2023-01-22T02:20:16.464Z,3.70
2023-01-22T02:22:43.489Z,3.60
2023-01-22T02:25:10.238Z,3.60
2023-01-22T02:27:37.052Z,3.60
2023-01-22T02:30:03.985Z,3.60
2023-01-22T02:32:30.752Z,3.60
2023-01-22T02:34:57.527Z,3.70
2023-01-22T02:37:24.332Z,3.80
2023-01-22T02:39:51.138Z,3.80
2023-01-22T02:42:17.925Z,3.80
2023-01-22T02:44:44.690Z,3.80
2023-01-22T02:47:11.493Z,3.80
2023-01-22T02:49:38.355Z,3.90
2023-01-22T02:52:05.215Z,3.80
2023-01-22T02:54:31.953Z,3.80
2023-01-22T02:56:58.721Z,3.90
2023-01-22T02:59:25.495Z,3.90
2023-01-22T03:01:52.395Z,3.90
2023-01-22T03:04:19.295Z,3.90
2023-01-22T03:06:46.450Z,3.90
2023-01-22T03:09:14.836Z,3.80
2023-01-22T03:11:42.287Z,3.70
2023-01-22T03:14:28.041Z,3.70
2023-01-22T03:17:13.364Z,3.70
2023-01-22T03:19:58.873Z,3.80
2023-01-22T03:22:25.803Z,3.70
2023-01-22T03:24:53.140Z,3.70
2023-01-22T03:27:20.982Z,3.60
2023-01-22T03:29:47.844Z,3.60
2023-01-22T03:32:14.792Z,3.60
2023-01-22T03:34:41.791Z,3.60
2023-01-22T03:37:09.133Z,3.60
2023-01-22T03:39:36.006Z,3.60
2023-01-22T03:42:02.905Z,3.70
2023-01-22T03:44:29.844Z,3.60
2023-01-22T03:46:56.747Z,3.60
2023-01-22T03:49:23.684Z,3.70
2023-01-22T03:51:51.561Z,3.60
2023-01-22T03:54:18.390Z,3.60
2023-01-22T03:56:45.206Z,3.60
2023-01-22T03:59:12.067Z,3.60
2023-01-22T04:01:38.996Z,3.60
2023-01-22T04:04:05.784Z,3.50
2023-01-22T04:06:32.603Z,3.50
2023-01-22T04:08:59.394Z,3.50
2023-01-22T04:11:26.260Z,3.60
2023-01-22T04:13:54.503Z,3.60
2023-01-22T04:16:21.302Z,3.60
2023-01-22T04:18:48.134Z,3.60
2023-01-22T04:21:14.908Z,3.70
2023-01-22T04:23:41.675Z,3.60
2023-01-22T04:26:08.702Z,3.60
2023-01-22T04:28:35.467Z,3.60
2023-01-22T04:31:02.374Z,3.60
2023-01-22T04:33:29.234Z,3.60
2023-01-22T04:35:55.966Z,3.60
2023-01-22T04:38:22.975Z,3.60
2023-01-22T04:40:49.731Z,3.70
2023-01-22T04:43:16.537Z,3.60
2023-01-22T04:45:43.371Z,3.60
2023-01-22T04:48:11.162Z,3.60
2023-01-22T04:50:38.009Z,3.60
2023-01-22T04:53:05.258Z,3.50
2023-01-22T04:55:32.179Z,3.50
2023-01-22T04:57:59.357Z,3.50
2023-01-22T05:00:26.692Z,3.50
2023-01-22T05:03:00.225Z,3.50
2023-01-22T05:05:27.536Z,3.50
2023-01-22T05:07:54.422Z,3.50
2023-01-22T05:10:21.545Z,3.40
2023-01-22T05:12:48.844Z,3.50
2023-01-22T05:15:23.996Z,3.40
2023-01-22T05:17:51.979Z,3.40
2023-01-22T05:20:19.117Z,3.40
2023-01-22T05:22:46.102Z,3.40
2023-01-22T05:25:12.935Z,3.40
2023-01-22T05:27:39.743Z,3.40
2023-01-22T05:30:07.287Z,3.50
2023-01-22T05:32:34.062Z,3.50
2023-01-22T05:35:00.894Z,3.50
2023-01-22T05:37:27.719Z,3.60
2023-01-22T05:39:54.564Z,3.60
2023-01-22T05:42:21.410Z,3.50
2023-01-22T05:44:48.250Z,3.50
2023-01-22T05:47:15.208Z,3.50
2023-01-22T05:49:42.085Z,3.50
2023-01-22T05:52:11.870Z,3.50
2023-01-22T05:54:39.714Z,3.50
2023-01-22T05:57:06.718Z,3.50
2023-01-22T05:59:33.604Z,3.60
2023-01-22T06:02:00.493Z,3.60
2023-01-22T06:04:27.333Z,3.50
2023-01-22T06:06:54.126Z,3.50
2023-01-22T06:09:20.857Z,3.60
2023-01-22T06:11:47.634Z,3.60
2023-01-22T06:14:14.452Z,3.50
2023-01-22T06:16:41.227Z,3.60
2023-01-22T06:19:08.079Z,3.60
2023-01-22T06:21:34.851Z,3.60
2023-01-22T06:24:01.615Z,3.50
2023-01-22T06:26:28.364Z,3.50
2023-01-22T06:28:55.428Z,3.50
2023-01-22T06:31:22.405Z,3.50
2023-01-22T06:33:49.528Z,3.60
2023-01-22T06:36:16.375Z,3.60
2023-01-22T06:38:43.178Z,3.50
2023-01-22T06:41:10.059Z,3.60
2023-01-22T06:43:37.747Z,3.60
2023-01-22T06:46:04.922Z,3.60
2023-01-22T06:48:31.783Z,3.60
2023-01-22T06:50:59.282Z,3.50
2023-01-22T06:53:26.164Z,3.50
2023-01-22T06:55:52.996Z,3.60
2023-01-22T06:58:19.842Z,3.70
2023-01-22T07:00:46.570Z,3.70
2023-01-22T07:03:14.997Z,3.80
2023-01-22T07:05:41.842Z,3.90
2023-01-22T07:08:08.713Z,3.90
2023-01-22T07:10:35.527Z,4.00
2023-01-22T07:13:04.329Z,4.10
2023-01-22T07:15:31.185Z,4.20
2023-01-22T07:17:57.925Z,4.30
2023-01-22T07:20:24.842Z,4.30
2023-01-22T07:22:51.796Z,4.40
2023-01-22T07:25:19.411Z,4.40
2023-01-22T07:27:46.272Z,4.30
2023-01-22T07:30:13.603Z,4.30
2023-01-22T07:32:40.392Z,4.30
2023-01-22T07:35:07.465Z,4.10
2023-01-22T07:37:34.238Z,4.10
2023-01-22T07:40:01.106Z,4.10
2023-01-22T07:42:27.920Z,4.20
2023-01-22T07:44:54.691Z,4.20
2023-01-22T07:47:21.534Z,4.20
2023-01-22T07:49:48.306Z,4.30
2023-01-22T07:52:15.075Z,4.40
2023-01-22T07:54:41.824Z,4.50
2023-01-22T07:57:08.712Z,4.60
2023-01-22T07:59:35.529Z,4.80
2023-01-22T08:02:03.608Z,5.10
2023-01-22T08:04:30.634Z,5.20
2023-01-22T08:06:57.403Z,5.30
2023-01-22T08:09:25.803Z,5.40
2023-01-22T08:11:53.199Z,5.40
2023-01-22T08:14:20.210Z,5.50
2023-01-22T08:16:47.068Z,5.50
2023-01-22T08:19:14.405Z,5.60
2023-01-22T08:21:41.271Z,5.60
2023-01-22T08:24:08.338Z,5.60
2023-01-22T08:26:35.327Z,5.50
2023-01-22T08:29:05.399Z,5.50
2023-01-22T08:31:34.488Z,5.40
2023-01-22T08:34:01.366Z,5.40
2023-01-22T08:36:28.235Z,5.40
2023-01-22T08:38:55.146Z,5.40
2023-01-22T08:41:22.264Z,5.30
2023-01-22T08:43:49.028Z,5.30
2023-01-22T08:46:15.785Z,5.40
2023-01-22T08:48:44.172Z,5.40
2023-01-22T08:51:12.076Z,5.50
2023-01-22T08:53:38.917Z,5.50
2023-01-22T08:56:06.285Z,5.60
2023-01-22T08:58:33.157Z,5.70
2023-01-22T09:00:59.990Z,5.80
2023-01-22T09:03:26.812Z,5.80
2023-01-22T09:05:53.814Z,5.90
2023-01-22T09:08:21.771Z,5.90
2023-01-22T09:10:48.566Z,5.80
2023-01-22T09:13:15.350Z,5.90
2023-01-22T09:15:42.070Z,5.90
2023-01-22T09:18:08.950Z,5.90
2023-01-22T09:20:35.837Z,5.90
2023-01-22T09:23:02.554Z,5.90
2023-01-22T09:25:30.179Z,5.90
2023-01-22T09:27:59.197Z,6.00
2023-01-22T09:30:26.822Z,6.10
2023-01-22T09:32:53.673Z,6.20
2023-01-22T09:35:20.565Z,6.30
2023-01-22T09:37:47.374Z,6.30
2023-01-22T09:40:41.567Z,6.30
2023-01-22T09:43:34.294Z,6.40
2023-01-22T09:46:03.416Z,6.70
2023-01-22T09:48:35.205Z,7.00
2023-01-22T09:51:02.021Z,7.20
2023-01-22T09:53:28.839Z,7.40
2023-01-22T09:55:56.013Z,7.60
2023-01-22T09:58:23.706Z,7.70
2023-01-22T10:00:55.581Z,7.90
2023-01-22T10:03:41.657Z,8.00
2023-01-22T10:06:18.309Z,8.00
2023-01-22T10:08:57.701Z,7.90
2023-01-22T10:11:24.816Z,7.90
2023-01-22T10:13:56.814Z,8.00
2023-01-22T10:16:23.713Z,8.10
2023-01-22T10:19:12.387Z,8.20
2023-01-22T10:21:45.323Z,8.50
2023-01-22T10:24:12.209Z,8.70
2023-01-22T10:26:54.516Z,8.60
2023-01-22T10:29:32.201Z,8.60
2023-01-22T10:32:03.751Z,8.50
2023-01-22T10:34:35.989Z,8.40
2023-01-22T10:37:15.528Z,8.40
2023-01-22T10:39:50.843Z,8.30
2023-01-22T10:42:23.078Z,8.10
2023-01-22T10:44:49.895Z,8.00
2023-01-22T10:47:21.313Z,8.00
2023-01-22T10:49:48.914Z,7.90
2023-01-22T10:52:27.577Z,7.80
2023-01-22T10:54:56.387Z,7.60
2023-01-22T10:57:28.063Z,7.30
2023-01-22T11:00:13.652Z,7.00
2023-01-22T11:02:47.978Z,6.90
2023-01-22T11:05:18.778Z,6.80
2023-01-22T11:07:47.686Z,6.70
2023-01-22T11:10:17.913Z,6.60
2023-01-22T11:12:50.584Z,6.60
2023-01-22T11:15:48.584Z,6.60
2023-01-22T11:18:39.561Z,6.60
2023-01-22T11:21:22.983Z,6.70
2023-01-22T11:23:55.399Z,6.70
2023-01-22T11:26:48.399Z,6.90
2023-01-22T11:29:37.589Z,7.00
2023-01-22T11:32:32.456Z,7.10
2023-01-22T11:35:14.545Z,7.10
2023-01-22T11:38:10.432Z,7.10
2023-01-22T11:40:56.406Z,7.00
2023-01-22T11:43:55.638Z,7.00
2023-01-22T11:46:53.203Z,7.00
2023-01-22T11:49:57.678Z,7.00
2023-01-22T11:52:33.382Z,7.00
2023-01-22T11:55:21.518Z,7.10
2023-01-22T11:57:55.377Z,7.10
2023-01-22T12:00:47.079Z,7.00
2023-01-22T12:03:22.798Z,6.90
2023-01-22T12:05:52.606Z,6.80
2023-01-22T12:08:37.701Z,6.70
2023-01-22T12:11:10.423Z,6.60
2023-01-22T12:13:37.226Z,6.60
2023-01-22T12:16:24.297Z,6.50
2023-01-22T12:18:54.115Z,6.50
2023-01-22T12:21:21.993Z,6.40
2023-01-22T12:23:56.699Z,6.40
2023-01-22T12:26:40.950Z,6.30
2023-01-22T12:29:23.858Z,6.30
2023-01-22T12:32:04.936Z,6.30
2023-01-22T12:34:34.347Z,6.30
2023-01-22T12:37:01.339Z,6.30
2023-01-22T12:39:34.817Z,6.30
2023-01-22T12:42:15.937Z,6.40
2023-01-22T12:45:01.519Z,6.40
2023-01-22T12:47:46.348Z,6.50
2023-01-22T12:50:23.491Z,6.60
2023-01-22T12:53:04.104Z,6.60
2023-01-22T12:55:44.228Z,6.70
2023-01-22T12:58:24.834Z,6.70
2023-01-22T13:01:02.155Z,6.80
2023-01-22T13:03:32.129Z,6.80
2023-01-22T13:06:00.122Z,6.80
2023-01-22T13:08:41.830Z,6.70
2023-01-22T13:11:10.668Z,6.70
2023-01-22T13:13:45.715Z,6.60
2023-01-22T13:16:15.692Z,6.40
2023-01-22T13:18:45.303Z,6.30
2023-01-22T13:21:13.347Z,6.20
2023-01-22T13:23:45.214Z,6.10
2023-01-22T13:26:26.257Z,6.10
2023-01-22T13:28:54.321Z,6.00
2023-01-22T13:31:21.204Z,6.00
2023-01-22T13:33:59.149Z,5.90
2023-01-22T13:36:26.980Z,5.90
2023-01-22T13:38:58.248Z,5.80
2023-01-22T13:41:38.330Z,5.80
2023-01-22T13:44:05.437Z,5.80
2023-01-22T13:46:32.314Z,5.80
2023-01-22T13:49:16.331Z,5.80
2023-01-22T13:51:43.224Z,5.80
2023-01-22T13:54:12.750Z,5.80
2023-01-22T13:56:39.478Z,5.70
2023-01-22T13:59:24.489Z,5.80
2023-01-22T14:01:51.602Z,5.70
2023-01-22T14:04:27.542Z,5.70
2023-01-22T14:06:54.385Z,5.60
2023-01-22T14:09:30.909Z,5.60
2023-01-22T14:11:58.532Z,5.60
2023-01-22T14:14:25.416Z,5.60
2023-01-22T14:16:52.304Z,5.60
2023-01-22T14:19:19.093Z,5.50
2023-01-22T14:21:45.899Z,5.40
2023-01-22T14:24:12.705Z,5.30
2023-01-22T14:26:39.497Z,5.30
2023-01-22T14:29:06.834Z,5.20
2023-01-22T14:31:33.753Z,5.20
2023-01-22T14:34:00.574Z,5.20
2023-01-22T14:36:27.346Z,5.20
2023-01-22T14:38:55.434Z,5.30
2023-01-22T14:41:22.301Z,5.30
2023-01-22T14:43:49.144Z,5.20
2023-01-22T14:46:15.972Z,5.30
2023-01-22T14:48:42.765Z,5.20
2023-01-22T14:51:11.204Z,5.20
2023-01-22T14:53:38.442Z,5.10
2023-01-22T14:56:05.502Z,5.10
2023-01-22T14:58:32.371Z,5.00
2023-01-22T15:00:59.162Z,5.00
2023-01-22T15:03:28.665Z,5.00
2023-01-22T15:05:55.418Z,5.10
2023-01-22T15:08:22.212Z,5.10
2023-01-22T15:10:49.024Z,5.00
2023-01-22T15:13:15.795Z,4.90
2023-01-22T15:15:42.609Z,4.80
2023-01-22T15:18:09.398Z,4.80
2023-01-22T15:20:36.184Z,4.80
2023-01-22T15:23:02.896Z,4.80
2023-01-22T15:25:29.669Z,4.70
2023-01-22T15:27:56.426Z,4.70
2023-01-22T15:30:23.267Z,4.70
2023-01-22T15:32:50.104Z,4.70
2023-01-22T15:35:17.073Z,4.70
2023-01-22T15:37:43.880Z,4.70
2023-01-22T15:40:11.308Z,4.70
2023-01-22T15:42:38.115Z,4.60
2023-01-22T15:45:05.230Z,4.60
2023-01-22T15:47:31.943Z,4.50
2023-01-22T15:49:58.756Z,4.50
2023-01-22T15:52:25.546Z,4.50
2023-01-22T15:54:53.750Z,4.50
2023-01-22T15:57:20.668Z,4.50
2023-01-22T15:59:47.619Z,4.50
2023-01-22T16:02:14.449Z,4.50
2023-01-22T16:04:41.229Z,4.40
2023-01-22T16:07:08.007Z,4.40
2023-01-22T16:09:38.849Z,4.50
2023-01-22T16:12:05.973Z,4.50
2023-01-22T16:14:32.841Z,4.40
2023-01-22T16:17:00.526Z,4.40
2023-01-22T16:19:27.428Z,4.30
2023-01-22T16:21:54.251Z,4.20
2023-01-22T16:24:21.201Z,4.20
2023-01-22T16:26:48.054Z,4.20
2023-01-22T16:29:14.802Z,4.20
2023-01-22T16:31:41.796Z,4.20
2023-01-22T16:34:13.612Z,4.20
2023-01-22T16:36:40.823Z,4.30
2023-01-22T16:39:07.729Z,4.30
2023-01-22T16:41:35.376Z,4.30
2023-01-22T16:44:06.015Z,4.30
2023-01-22T16:46:32.839Z,4.30
2023-01-22T16:49:05.485Z,4.30
2023-01-22T16:51:39.583Z,4.40
2023-01-22T16:54:06.702Z,4.30
2023-01-22T16:56:33.871Z,4.40
2023-01-22T16:59:00.711Z,4.40
2023-01-22T17:01:29.452Z,4.40
2023-01-22T17:03:56.389Z,4.40
2023-01-22T17:06:34.965Z,4.40
2023-01-22T17:09:01.791Z,4.40
2023-01-22T17:11:28.636Z,4.40
2023-01-22T17:13:55.356Z,4.40
2023-01-22T17:16:22.123Z,4.40
2023-01-22T17:18:48.968Z,4.40
2023-01-22T17:21:17.253Z,4.40
2023-01-22T17:23:44.237Z,4.40
2023-01-22T17:26:13.396Z,4.40
2023-01-22T17:28:40.324Z,4.40
2023-01-22T17:31:18.690Z,4.30
2023-01-22T17:33:46.353Z,4.30
2023-01-22T17:36:13.946Z,4.30
2023-01-22T17:38:40.934Z,4.30
2023-01-22T17:41:09.410Z,4.30
2023-01-22T17:43:36.764Z,4.30
2023-01-22T17:46:07.458Z,4.30
2023-01-22T17:48:35.685Z,4.30
2023-01-22T17:51:04.330Z,4.30
2023-01-22T17:53:31.232Z,4.30
2023-01-22T17:56:09.074Z,4.30
2023-01-22T17:58:36.162Z,4.30
2023-01-22T18:01:08.142Z,4.20
2023-01-22T18:03:35.351Z,4.20
2023-01-22T18:06:02.505Z,4.20
2023-01-22T18:08:30.294Z,4.20
2023-01-22T18:10:57.604Z,4.10
2023-01-22T18:13:24.630Z,4.10
2023-01-22T18:15:51.704Z,4.10
2023-01-22T18:18:18.596Z,4.10
2023-01-22T18:20:54.515Z,4.20
2023-01-22T18:23:21.388Z,4.10
2023-01-22T18:25:50.445Z,4.20
2023-01-22T18:28:18.164Z,4.10
2023-01-22T18:30:45.987Z,4.20
2023-01-22T18:33:14.786Z,4.20
2023-01-22T18:35:45.878Z,4.20
2023-01-22T18:38:13.059Z,4.10
2023-01-22T18:40:40.049Z,4.10
2023-01-22T18:43:09.071Z,4.10
2023-01-22T18:45:42.635Z,4.10
2023-01-22T18:48:13.382Z,4.00
2023-01-22T18:50:40.557Z,4.00
2023-01-22T18:53:07.511Z,4.00
2023-01-22T18:55:34.649Z,4.00
2023-01-22T18:58:21.571Z,4.00
2023-01-22T19:00:48.384Z,4.00
2023-01-22T19:03:15.199Z,4.00
2023-01-22T19:05:42.040Z,4.00
2023-01-22T19:08:08.823Z,4.00
2023-01-22T19:10:35.894Z,3.90
2023-01-22T19:13:02.717Z,4.00
2023-01-22T19:15:29.975Z,3.90
2023-01-22T19:17:56.752Z,3.90
2023-01-22T19:20:23.539Z,3.90
2023-01-22T19:22:50.379Z,3.80
2023-01-22T19:25:17.372Z,3.90
2023-01-22T19:27:44.731Z,3.90
2023-01-22T19:30:12.185Z,4.00
2023-01-22T19:32:38.973Z,4.00
2023-01-22T19:35:09.991Z,4.00
2023-01-22T19:37:36.704Z,4.00
2023-01-22T19:40:03.685Z,4.00
2023-01-22T19:42:36.662Z,4.00
2023-01-22T19:45:03.637Z,4.00
2023-01-22T19:47:30.434Z,4.10
2023-01-22T19:49:57.163Z,4.10
2023-01-22T19:52:23.946Z,4.10
2023-01-22T19:54:50.791Z,4.10
2023-01-22T19:57:17.693Z,4.10
2023-01-22T19:59:46.002Z,4.10
2023-01-22T20:02:14.201Z,4.00
2023-01-22T20:04:41.032Z,4.00
2023-01-22T20:07:07.809Z,4.00
2023-01-22T20:09:35.265Z,4.00
2023-01-22T20:12:03.565Z,4.10
2023-01-22T20:14:31.833Z,4.10
2023-01-22T20:16:58.963Z,4.10
2023-01-22T20:19:25.856Z,4.00
2023-01-22T20:21:52.624Z,4.00
2023-01-22T20:24:19.358Z,4.00
2023-01-22T20:26:46.189Z,4.00
2023-01-22T20:29:17.710Z,3.90
2023-01-22T20:31:44.839Z,3.90
2023-01-22T20:34:11.709Z,3.70
2023-01-22T20:36:38.555Z,3.70
2023-01-22T20:39:06.114Z,3.70
2023-01-22T20:41:34.386Z,3.70
2023-01-22T20:44:01.474Z,3.60
2023-01-22T20:46:30.589Z,3.60
2023-01-22T20:48:58.274Z,3.60
2023-01-22T20:51:27.381Z,3.70
2023-01-22T20:53:54.824Z,3.70
2023-01-22T20:56:27.249Z,3.70
2023-01-22T20:58:57.778Z,3.70
2023-01-22T21:01:24.923Z,3.80
2023-01-22T21:03:52.143Z,3.70
2023-01-22T21:06:19.303Z,3.70
2023-01-22T21:08:49.431Z,3.70
2023-01-22T21:11:20.254Z,3.70
2023-01-22T21:13:47.951Z,3.80
2023-01-22T21:16:16.640Z,3.70
2023-01-22T21:18:46.614Z,3.70
2023-01-22T21:21:18.330Z,3.70
2023-01-22T21:23:46.572Z,3.50
2023-01-22T21:26:15.421Z,3.60
2023-01-22T21:28:42.324Z,3.60
2023-01-22T21:31:12.676Z,3.50
2023-01-22T21:33:39.733Z,3.40
2023-01-22T21:36:07.426Z,3.40
2023-01-22T21:38:34.746Z,3.30
2023-01-22T21:41:08.611Z,3.40
2023-01-22T21:43:53.922Z,3.40
2023-01-22T21:46:25.380Z,3.40
2023-01-22T21:49:01.222Z,3.40
2023-01-22T21:51:29.228Z,3.40
2023-01-22T21:53:56.863Z,3.30
2023-01-22T21:56:23.908Z,3.30
2023-01-22T21:58:50.788Z,3.30
2023-01-22T22:01:21.526Z,3.20
2023-01-22T22:03:48.495Z,3.10
2023-01-22T22:06:15.331Z,2.90
2023-01-22T22:08:43.510Z,2.80
2023-01-22T22:11:11.679Z,2.70
2023-01-22T22:13:39.004Z,2.80
2023-01-22T22:16:07.382Z,2.80
2023-01-22T22:18:34.114Z,2.90
2023-01-22T22:21:02.264Z,2.90
2023-01-22T22:23:29.050Z,3.10
2023-01-22T22:25:55.819Z,3.10
2023-01-22T22:28:22.867Z,3.10
2023-01-22T22:30:49.677Z,3.20
2023-01-22T22:33:16.609Z,3.10
2023-01-22T22:35:46.921Z,3.20
2023-01-22T22:38:14.315Z,3.10
2023-01-22T22:40:41.713Z,3.00
2023-01-22T22:43:09.053Z,2.90
2023-01-22T22:45:37.737Z,3.00
2023-01-22T22:48:04.964Z,3.00
2023-01-22T22:50:31.774Z,3.00
2023-01-22T22:52:58.538Z,3.00
2023-01-22T22:55:26.697Z,3.00
2023-01-22T22:57:53.520Z,3.10
2023-01-22T23:00:20.733Z,3.20
2023-01-22T23:02:47.581Z,3.30
2023-01-22T23:05:14.459Z,3.40
2023-01-22T23:07:41.288Z,3.40
2023-01-22T23:10:28.587Z,3.50
2023-01-22T23:13:00.220Z,3.50
2023-01-22T23:15:27.727Z,3.60
2023-01-22T23:17:55.191Z,3.60
2023-01-22T23:20:22.365Z,3.60
2023-01-22T23:22:51.146Z,3.60
2023-01-22T23:25:18.126Z,3.70
2023-01-22T23:27:44.966Z,3.70
2023-01-22T23:30:12.587Z,3.70
2023-01-22T23:32:39.837Z,3.70
2023-01-22T23:35:07.158Z,3.70
2023-01-22T23:37:33.989Z,3.70
2023-01-22T23:40:00.762Z,3.60
2023-01-22T23:42:27.575Z,3.60
2023-01-22T23:44:54.299Z,3.60
2023-01-22T23:47:24.498Z,3.60
2023-01-22T23:49:51.864Z,3.60
2023-01-22T23:52:18.688Z,3.60
2023-01-22T23:54:45.531Z,3.50
2023-01-22T23:57:12.332Z,3.60
2023-01-22T23:59:39.200Z,3.50
